Time;durP1;ratioP1;P1;durP2;ratioP2;P2;SDS_P1;SDS_P2;PMS_P1;PMS_P2;Temp;Humidity;BMP_temperature;BMP_pressure;BME280_temperature;BME280_humidity;BME280_pressure;Samples;Min_cycle;Max_cycle;Signal;HPM_P1;HPM_P2
2021/04/27 00:02:15;;;;;;;7.73;0.40;;;7.40;99.90;;;;;;5073366;28;20207;-81
2021/04/27 00:04:42;;;;;;;0.50;0.20;;;7.40;99.90;;;;;;5089236;28;20174;-82
2021/04/27 00:07:08;;;;;;;0.07;0.07;;;7.40;99.90;;;;;;5087179;28;20177;-83
2021/04/27 00:09:34;;;;;;;0.10;0.10;;;7.30;99.90;;;;;;5070115;28;20189;-82
2021/04/27 00:11:59;;;;;;;0.10;0.10;;;7.40;99.90;;;;;;5096616;28;20731;-79
2021/04/27 00:14:25;;;;;;;0.50;0.50;;;7.30;99.90;;;;;;5073436;28;20181;-81
2021/04/27 00:16:51;;;;;;;0.10;0.10;;;7.30;99.90;;;;;;5058914;28;20188;-79
2021/04/27 00:19:16;;;;;;;0.10;0.10;;;7.30;99.90;;;;;;5068730;28;20669;-80
2021/04/27 00:21:42;;;;;;;0.20;0.20;;;7.30;99.90;;;;;;5067245;28;20185;-78
2021/04/27 00:24:08;;;;;;;0.20;0.20;;;7.30;99.90;;;;;;5076264;28;20233;-80
2021/04/27 00:26:34;;;;;;;0.53;0.40;;;7.30;99.90;;;;;;5080900;28;20181;-81
2021/04/27 00:28:59;;;;;;;0.30;0.30;;;7.20;99.90;;;;;;5094990;28;20214;-80
2021/04/27 00:31:27;;;;;;;0.10;0.10;;;7.20;99.90;;;;;;5078724;28;20208;-80
2021/04/27 00:33:54;;;;;;;0.17;0.17;;;7.30;99.90;;;;;;5059994;28;20213;-80
2021/04/27 00:36:20;;;;;;;0.17;0.17;;;7.30;99.90;;;;;;5067036;28;20184;-81
2021/04/27 00:38:45;;;;;;;0.30;0.30;;;7.40;99.90;;;;;;5067147;28;20551;-80
2021/04/27 00:41:11;;;;;;;0.20;0.20;;;7.30;99.90;;;;;;5088337;28;20218;-80
2021/04/27 00:43:37;;;;;;;0.10;0.10;;;7.20;99.90;;;;;;5073567;28;20188;-80
2021/04/27 00:46:02;;;;;;;0.10;0.10;;;7.20;99.90;;;;;;5062533;28;20189;-79
2021/04/27 00:48:28;;;;;;;0.37;0.37;;;7.20;99.90;;;;;;5080920;28;20218;-81
2021/04/27 00:50:53;;;;;;;4.13;0.50;;;7.20;99.90;;;;;;5067606;28;20701;-80
2021/04/27 00:53:19;;;;;;;0.23;0.20;;;7.10;99.90;;;;;;5071956;28;20294;-80
2021/04/27 00:55:45;;;;;;;0.10;0.10;;;7.10;99.90;;;;;;5062353;28;20202;-79
2021/04/27 00:58:10;;;;;;;0.10;0.10;;;7.10;99.90;;;;;;5073576;28;20643;-80
2021/04/27 01:00:39;;;;;;;0.10;0.10;;;7.10;99.90;;;;;;5065803;28;20630;-80
2021/04/27 01:03:05;;;;;;;0.27;0.27;;;7.00;99.90;;;;;;5068373;28;20198;-80
2021/04/27 01:05:33;;;;;;;0.30;0.30;;;7.00;99.90;;;;;;5073395;28;20188;-78
2021/04/27 01:08:32;;;;;;;0.10;0.10;;;7.00;99.90;;;;;;5074646;28;20257;-80
2021/04/27 01:11:09;;;;;;;0.10;0.10;;;7.00;99.90;;;;;;5083725;28;20200;-80
2021/04/27 01:13:42;;;;;;;0.10;0.10;;;7.00;99.90;;;;;;5091770;28;20180;-80
2021/04/27 01:16:09;;;;;;;0.90;0.90;;;6.90;99.90;;;;;;5065420;28;20182;-79
2021/04/27 01:18:39;;;;;;;0.27;0.27;;;6.90;99.90;;;;;;5063880;28;20189;-80
2021/04/27 01:21:07;;;;;;;0.10;0.10;;;6.90;99.90;;;;;;5073971;28;20205;-80
2021/04/27 01:23:59;;;;;;;0.60;0.60;;;6.90;99.90;;;;;;5070720;28;20241;-80
2021/04/27 01:26:44;;;;;;;0.10;0.10;;;6.90;99.90;;;;;;5063401;28;20185;-80
2021/04/27 01:29:12;;;;;;;0.13;0.13;;;6.90;99.90;;;;;;5090634;28;20234;-80
2021/04/27 01:31:39;;;;;;;0.10;0.10;;;6.90;99.90;;;;;;5088194;28;20264;-79
2021/04/27 01:34:07;;;;;;;0.10;0.10;;;6.80;99.90;;;;;;5061216;28;20185;-80
2021/04/27 01:36:34;;;;;;;0.10;0.10;;;6.90;99.90;;;;;;5072436;28;20561;-80
2021/04/27 01:39:00;;;;;;;0.20;0.20;;;6.90;99.90;;;;;;5083594;28;20200;-79
2021/04/27 01:41:26;;;;;;;0.00;0.00;;;6.80;99.90;;;;;;5069234;28;20209;-80
2021/04/27 01:43:52;;;;;;;0.10;0.10;;;6.80;99.90;;;;;;5059646;28;20256;-79
2021/04/27 01:46:19;;;;;;;0.20;0.20;;;6.90;99.90;;;;;;5059539;28;20192;-80
2021/04/27 01:48:46;;;;;;;0.20;0.20;;;6.90;99.90;;;;;;5085878;28;20585;-81
2021/04/27 01:51:12;;;;;;;0.20;0.20;;;6.90;99.90;;;;;;5071282;28;20218;-80
2021/04/27 01:53:39;;;;;;;0.00;0.00;;;6.90;99.90;;;;;;5064317;28;20194;-80
2021/04/27 01:56:06;;;;;;;0.77;0.37;;;6.80;99.90;;;;;;5062052;28;20180;-79
2021/04/27 01:58:32;;;;;;;0.10;0.10;;;6.80;99.90;;;;;;5078673;28;20181;-80
2021/04/27 02:00:58;;;;;;;0.20;0.20;;;6.80;99.90;;;;;;5088614;28;20220;-80
2021/04/27 02:03:25;;;;;;;0.10;0.10;;;6.80;99.90;;;;;;5091064;28;20196;-80
2021/04/27 02:05:51;;;;;;;0.10;0.10;;;6.80;99.90;;;;;;5070573;28;20213;-78
2021/04/27 02:08:16;;;;;;;0.03;0.03;;;6.70;99.90;;;;;;5059555;28;20209;-79
2021/04/27 02:10:42;;;;;;;0.10;0.10;;;6.70;99.90;;;;;;5066229;28;20309;-80
2021/04/27 02:13:12;;;;;;;0.10;0.10;;;6.60;99.90;;;;;;5090989;28;20181;-80
2021/04/27 02:15:38;;;;;;;0.23;0.23;;;6.50;99.90;;;;;;5076939;28;20660;-80
2021/04/27 02:18:15;;;;;;;0.10;0.10;;;6.50;99.90;;;;;;5077724;28;20186;-79
2021/04/27 02:20:43;;;;;;;0.50;0.50;;;6.40;99.90;;;;;;5079607;28;20208;-80
2021/04/27 02:23:09;;;;;;;0.10;0.10;;;6.40;99.90;;;;;;5061364;28;20256;-80
2021/04/27 02:25:36;;;;;;;0.20;0.20;;;6.40;99.90;;;;;;5064216;28;20189;-80
2021/04/27 02:28:02;;;;;;;0.07;0.07;;;6.40;99.90;;;;;;5061598;28;20212;-79
2021/04/27 02:30:28;;;;;;;0.23;0.23;;;6.40;99.90;;;;;;5063506;28;20197;-80
2021/04/27 02:32:54;;;;;;;0.10;0.10;;;6.30;99.90;;;;;;5095795;28;20573;-79
2021/04/27 02:35:21;;;;;;;0.77;0.50;;;6.30;99.90;;;;;;5070665;28;20219;-80
2021/04/27 02:37:50;;;;;;;0.10;0.10;;;6.30;99.90;;;;;;5086127;28;20195;-80
2021/04/27 02:40:23;;;;;;;0.20;0.20;;;6.30;99.90;;;;;;5096598;28;20291;-79
2021/04/27 02:42:53;;;;;;;0.20;0.20;;;6.30;99.90;;;;;;5064844;28;20189;-80
2021/04/27 02:45:19;;;;;;;0.17;0.17;;;6.40;99.90;;;;;;5097386;28;20301;-79
2021/04/27 02:47:45;;;;;;;0.43;0.30;;;6.40;99.90;;;;;;5060009;28;20212;-80
2021/04/27 02:50:13;;;;;;;0.47;0.20;;;6.40;99.90;;;;;;5067289;28;20218;-78
2021/04/27 02:52:41;;;;;;;0.10;0.10;;;6.40;99.90;;;;;;5077438;28;20182;-80
2021/04/27 02:55:08;;;;;;;0.30;0.20;;;6.40;99.90;;;;;;5094800;28;20184;-79
2021/04/27 02:57:34;;;;;;;0.63;0.40;;;6.30;99.90;;;;;;5058719;28;20190;-80
2021/04/27 03:00:00;;;;;;;0.10;0.10;;;6.30;99.90;;;;;;5067713;28;20209;-80
2021/04/27 03:02:25;;;;;;;0.07;0.07;;;6.30;99.90;;;;;;5089930;28;20235;-80
2021/04/27 03:04:51;;;;;;;0.10;0.10;;;6.30;99.90;;;;;;5095468;28;20189;-79
2021/04/27 03:07:16;;;;;;;0.10;0.10;;;6.30;99.90;;;;;;5075729;28;20311;-80
2021/04/27 03:09:42;;;;;;;0.10;0.10;;;6.30;99.90;;;;;;5073705;28;20204;-81
2021/04/27 03:12:08;;;;;;;0.10;0.10;;;6.30;99.90;;;;;;5070670;28;20602;-80
2021/04/27 03:14:33;;;;;;;0.47;0.47;;;6.20;99.90;;;;;;5059356;28;20182;-78
2021/04/27 03:16:59;;;;;;;0.67;0.47;;;6.20;99.90;;;;;;5061055;28;20181;-80
2021/04/27 03:19:24;;;;;;;0.50;0.50;;;6.20;99.90;;;;;;5062896;28;20550;-78
2021/04/27 03:21:50;;;;;;;0.37;0.37;;;6.20;99.90;;;;;;5093101;28;20187;-79
2021/04/27 03:24:16;;;;;;;0.10;0.10;;;6.20;99.90;;;;;;5091580;28;20220;-78
2021/04/27 03:26:41;;;;;;;0.10;0.10;;;6.20;99.90;;;;;;5091405;28;21962;-80
2021/04/27 03:29:07;;;;;;;0.20;0.20;;;6.20;99.90;;;;;;5088175;28;20216;-80
2021/04/27 03:31:32;;;;;;;0.10;0.10;;;6.20;99.90;;;;;;5078879;28;20201;-80
2021/04/27 03:33:59;;;;;;;0.37;0.37;;;6.20;99.90;;;;;;5070507;28;20180;-83
2021/04/27 03:36:24;;;;;;;0.13;0.13;;;6.10;99.90;;;;;;5064542;28;20181;-82
2021/04/27 03:38:50;;;;;;;0.10;0.10;;;6.10;99.90;;;;;;5064071;28;20659;-78
2021/04/27 03:41:16;;;;;;;0.13;0.13;;;6.10;99.90;;;;;;5077349;28;20209;-79
2021/04/27 03:43:42;;;;;;;0.10;0.10;;;6.10;99.90;;;;;;5064922;28;20742;-81
2021/04/27 03:46:07;;;;;;;0.10;0.10;;;6.00;99.90;;;;;;5066458;28;20191;-81
2021/04/27 03:48:33;;;;;;;0.33;0.20;;;6.00;99.90;;;;;;5089642;28;20235;-79
2021/04/27 03:50:59;;;;;;;0.10;0.10;;;6.00;99.90;;;;;;5082200;28;20226;-79
2021/04/27 03:53:24;;;;;;;0.00;0.00;;;6.00;99.90;;;;;;5093828;28;20189;-80
2021/04/27 03:55:50;;;;;;;0.10;0.10;;;5.90;99.90;;;;;;5081732;28;20254;-81
2021/04/27 03:58:16;;;;;;;0.20;0.20;;;5.90;99.90;;;;;;5062317;28;20189;-80
2021/04/27 04:00:41;;;;;;;0.53;0.43;;;5.90;99.90;;;;;;5069174;28;20210;-80
2021/04/27 04:03:07;;;;;;;0.17;0.17;;;5.80;99.90;;;;;;5080149;28;20189;-79
2021/04/27 04:05:32;;;;;;;0.20;0.20;;;5.80;99.90;;;;;;5068878;28;20195;-80
2021/04/27 04:07:58;;;;;;;0.00;0.00;;;5.80;99.90;;;;;;5075697;28;20722;-80
2021/04/27 04:10:24;;;;;;;0.40;0.40;;;5.80;99.90;;;;;;5073212;28;20255;-81
2021/04/27 04:12:49;;;;;;;0.10;0.10;;;5.80;99.90;;;;;;5066572;28;20184;-80
2021/04/27 04:15:18;;;;;;;0.30;0.30;;;5.80;99.90;;;;;;5083920;28;21091;-78
2021/04/27 04:17:43;;;;;;;0.10;0.10;;;5.70;99.90;;;;;;5075611;28;20184;-80
2021/04/27 04:20:15;;;;;;;0.20;0.20;;;5.80;99.90;;;;;;5072668;28;20202;-81
2021/04/27 04:22:41;;;;;;;0.10;0.10;;;5.90;99.90;;;;;;5075413;28;20320;-80
2021/04/27 04:25:09;;;;;;;0.10;0.10;;;5.90;99.90;;;;;;5086839;28;20200;-80
2021/04/27 04:27:35;;;;;;;0.20;0.20;;;5.90;99.90;;;;;;5063181;28;20205;-81
2021/04/27 04:30:06;;;;;;;0.20;0.20;;;5.90;99.90;;;;;;5061362;28;20208;-80
2021/04/27 04:32:31;;;;;;;0.00;0.00;;;6.00;99.90;;;;;;5079509;28;20189;-78
2021/04/27 04:34:57;;;;;;;0.40;0.40;;;6.00;99.90;;;;;;5075403;28;20667;-80
2021/04/27 04:37:23;;;;;;;0.10;0.10;;;6.00;99.90;;;;;;5070355;28;20212;-80
2021/04/27 04:39:48;;;;;;;0.20;0.20;;;6.00;99.90;;;;;;5078532;28;20231;-79
2021/04/27 04:42:14;;;;;;;0.70;0.20;;;6.10;99.90;;;;;;5059035;28;20184;-80
2021/04/27 04:44:39;;;;;;;0.17;0.17;;;6.20;99.90;;;;;;5083135;28;20230;-80
2021/04/27 04:47:05;;;;;;;0.00;0.00;;;6.20;99.90;;;;;;5073102;28;20662;-80
2021/04/27 04:49:31;;;;;;;0.10;0.10;;;6.30;99.90;;;;;;5060642;28;20681;-80
2021/04/27 04:51:56;;;;;;;0.10;0.10;;;6.30;99.90;;;;;;5061714;28;20195;-79
2021/04/27 04:54:22;;;;;;;0.10;0.10;;;6.40;99.90;;;;;;5058472;28;20207;-80
2021/04/27 04:56:48;;;;;;;0.30;0.30;;;6.50;99.90;;;;;;5059309;28;20181;-80
2021/04/27 04:59:14;;;;;;;0.10;0.10;;;6.60;99.90;;;;;;5069416;28;20284;-80
2021/04/27 05:01:40;;;;;;;0.83;0.83;;;6.70;99.90;;;;;;5071033;28;20184;-80
2021/04/27 05:04:06;;;;;;;0.10;0.10;;;6.90;99.90;;;;;;5077614;28;20693;-80
2021/04/27 05:06:36;;;;;;;0.37;0.20;;;6.90;99.90;;;;;;5074569;28;20331;-80
2021/04/27 05:09:04;;;;;;;0.17;0.17;;;7.00;99.90;;;;;;5075417;28;20219;-80
2021/04/27 05:11:29;;;;;;;0.10;0.10;;;7.10;99.90;;;;;;5065249;28;20566;-80
2021/04/27 05:13:55;;;;;;;0.03;0.03;;;7.10;99.90;;;;;;5081450;28;20197;-80
2021/04/27 05:16:21;;;;;;;0.10;0.10;;;7.10;99.90;;;;;;5096817;28;20195;-83
2021/04/27 05:18:48;;;;;;;0.20;0.20;;;7.10;99.90;;;;;;5088079;28;20178;-82
2021/04/27 05:21:14;;;;;;;0.10;0.10;;;7.00;99.90;;;;;;5076455;28;20586;-85
2021/04/27 05:23:39;;;;;;;0.10;0.10;;;7.00;99.90;;;;;;5067772;28;20196;-79
2021/04/27 05:26:05;;;;;;;0.13;0.13;;;7.00;99.90;;;;;;5062720;28;20570;-78
2021/04/27 05:28:31;;;;;;;0.50;0.50;;;7.10;99.90;;;;;;5062038;28;20215;-79
2021/04/27 05:30:57;;;;;;;0.17;0.17;;;7.20;99.90;;;;;;5065620;28;20210;-79
2021/04/27 05:33:22;;;;;;;0.50;0.50;;;7.20;99.90;;;;;;5089979;28;20188;-79
2021/04/27 05:35:48;;;;;;;0.10;0.10;;;7.30;99.90;;;;;;5080734;28;20233;-79
2021/04/27 05:38:13;;;;;;;0.10;0.10;;;7.40;99.90;;;;;;5097884;28;20188;-79
2021/04/27 05:40:39;;;;;;;0.63;0.57;;;7.50;99.90;;;;;;5086121;28;20213;-80
2021/04/27 05:43:05;;;;;;;0.10;0.10;;;7.60;99.90;;;;;;5084187;28;20182;-83
2021/04/27 05:45:30;;;;;;;0.40;0.40;;;7.80;99.90;;;;;;5061554;28;20224;-83
2021/04/27 05:47:56;;;;;;;0.30;0.30;;;7.70;99.90;;;;;;5077363;28;20209;-83
2021/04/27 05:50:22;;;;;;;0.10;0.10;;;7.60;99.90;;;;;;5094059;28;20232;-83
2021/04/27 05:52:47;;;;;;;0.47;0.30;;;7.60;99.90;;;;;;5070037;28;20204;-79
2021/04/27 05:55:13;;;;;;;0.10;0.10;;;7.60;99.90;;;;;;5085491;28;20184;-82
2021/04/27 05:57:39;;;;;;;0.50;0.50;;;7.60;99.90;;;;;;5076213;28;20279;-82
2021/04/27 06:00:06;;;;;;;3.30;0.30;;;7.40;99.90;;;;;;5080968;28;20210;-82
2021/04/27 06:02:32;;;;;;;0.30;0.30;;;7.60;99.90;;;;;;5062114;28;20580;-83
2021/04/27 06:04:57;;;;;;;0.10;0.10;;;7.60;99.90;;;;;;5066358;28;20193;-80
2021/04/27 06:07:23;;;;;;;0.33;0.20;;;7.70;99.90;;;;;;5067772;28;20217;-81
2021/04/27 06:09:48;;;;;;;0.10;0.10;;;7.60;99.90;;;;;;5065272;28;20625;-83
2021/04/27 06:12:14;;;;;;;0.10;0.10;;;7.80;99.90;;;;;;5063559;28;20659;-83
2021/04/27 06:14:40;;;;;;;0.07;0.07;;;7.90;99.90;;;;;;5061467;28;20271;-83
2021/04/27 06:17:05;;;;;;;0.10;0.10;;;8.10;99.90;;;;;;5068298;28;20226;-83
2021/04/27 06:19:31;;;;;;;0.20;0.20;;;8.20;99.90;;;;;;5067126;28;20200;-83
2021/04/27 06:21:57;;;;;;;0.13;0.13;;;8.30;99.90;;;;;;5065695;28;20178;-83
2021/04/27 06:24:22;;;;;;;0.10;0.10;;;8.40;99.90;;;;;;5089188;28;20213;-83
2021/04/27 06:26:48;;;;;;;0.17;0.17;;;8.30;99.90;;;;;;5065738;28;20714;-84
2021/04/27 06:29:13;;;;;;;0.10;0.10;;;8.30;99.90;;;;;;5066285;28;20211;-83
2021/04/27 06:31:39;;;;;;;0.17;0.17;;;8.40;99.90;;;;;;5064611;28;20647;-82
2021/04/27 06:34:05;;;;;;;0.20;0.20;;;8.60;99.90;;;;;;5058404;28;20176;-83
2021/04/27 06:36:32;;;;;;;0.30;0.30;;;8.50;99.90;;;;;;5086701;28;20182;-80
2021/04/27 06:38:57;;;;;;;0.87;0.80;;;8.60;99.90;;;;;;5087518;28;20878;-83
2021/04/27 06:41:23;;;;;;;0.10;0.10;;;8.60;99.90;;;;;;5067083;28;20285;-83
2021/04/27 06:43:50;;;;;;;0.10;0.10;;;8.50;99.90;;;;;;5086167;28;20559;-83
2021/04/27 06:46:15;;;;;;;0.27;0.27;;;8.60;99.90;;;;;;5071724;28;20178;-83
2021/04/27 06:48:41;;;;;;;0.10;0.10;;;8.70;99.90;;;;;;5085686;28;20213;-83
2021/04/27 06:51:08;;;;;;;0.20;0.20;;;8.80;99.90;;;;;;5066010;28;20587;-83
2021/04/27 06:53:34;;;;;;;0.23;0.23;;;8.90;99.90;;;;;;5086979;28;20958;-83
2021/04/27 06:56:00;;;;;;;0.37;0.37;;;9.00;99.90;;;;;;5064329;28;20243;-84
2021/04/27 06:58:26;;;;;;;0.13;0.13;;;9.30;99.90;;;;;;5083945;28;20183;-81
2021/04/27 07:00:51;;;;;;;0.10;0.10;;;9.00;99.90;;;;;;5062740;28;20233;-83
2021/04/27 07:03:17;;;;;;;0.30;0.30;;;9.00;99.90;;;;;;5079687;28;20251;-83
2021/04/27 07:05:44;;;;;;;0.10;0.10;;;8.90;99.90;;;;;;5070330;28;20205;-82
2021/04/27 07:08:11;;;;;;;0.10;0.10;;;9.10;99.90;;;;;;5058548;28;20215;-82
2021/04/27 07:10:37;;;;;;;0.20;0.20;;;9.20;99.90;;;;;;5058745;28;20548;-82
2021/04/27 07:13:03;;;;;;;0.47;0.47;;;9.50;99.90;;;;;;5084518;28;20193;-82
2021/04/27 07:15:28;;;;;;;0.50;0.43;;;9.30;99.90;;;;;;5068708;28;20202;-82
2021/04/27 07:17:54;;;;;;;0.10;0.10;;;9.30;99.90;;;;;;5057241;28;20193;-82
2021/04/27 07:20:20;;;;;;;0.10;0.10;;;9.10;99.90;;;;;;5073511;28;20241;-82
2021/04/27 07:22:45;;;;;;;0.20;0.20;;;9.60;99.90;;;;;;5065737;28;20689;-82
2021/04/27 07:25:13;;;;;;;0.20;0.20;;;9.50;99.90;;;;;;5079102;28;20213;-81
2021/04/27 07:27:40;;;;;;;0.10;0.10;;;9.40;99.90;;;;;;5071687;28;20243;-79
2021/04/27 07:30:09;;;;;;;1.10;1.10;;;9.60;99.90;;;;;;5059190;28;20241;-81
2021/04/27 07:32:35;;;;;;;0.60;0.20;;;10.00;99.90;;;;;;5064481;28;20181;-82
2021/04/27 07:35:01;;;;;;;0.30;0.30;;;9.70;99.90;;;;;;5068921;28;20319;-82
2021/04/27 07:37:27;;;;;;;0.10;0.10;;;9.70;99.90;;;;;;5064728;28;20182;-81
2021/04/27 07:39:52;;;;;;;0.70;0.50;;;9.90;99.90;;;;;;5065876;28;20210;-82
2021/04/27 07:42:18;;;;;;;0.37;0.37;;;9.70;99.90;;;;;;5083587;28;20182;-81
2021/04/27 07:44:44;;;;;;;0.17;0.17;;;10.30;99.90;;;;;;5062093;28;20273;-81
2021/04/27 07:47:10;;;;;;;0.77;0.23;;;10.60;99.90;;;;;;5068204;28;20276;-80
2021/04/27 07:49:36;;;;;;;0.20;0.20;;;10.40;99.90;;;;;;5064085;28;20269;-81
2021/04/27 07:52:02;;;;;;;0.20;0.20;;;10.20;99.90;;;;;;5088040;28;20655;-82
2021/04/27 07:54:27;;;;;;;0.10;0.10;;;10.40;99.90;;;;;;5071835;28;20185;-80
2021/04/27 07:56:53;;;;;;;0.20;0.20;;;10.60;99.90;;;;;;5064227;28;20611;-78
2021/04/27 07:59:19;;;;;;;0.10;0.10;;;10.50;99.90;;;;;;5076154;28;20249;-77
2021/04/27 08:01:45;;;;;;;0.00;0.00;;;10.60;99.90;;;;;;5079878;28;20193;-78
2021/04/27 08:04:10;;;;;;;0.20;0.20;;;10.80;99.90;;;;;;5079192;28;20632;-76
2021/04/27 08:06:36;;;;;;;0.10;0.10;;;11.00;99.90;;;;;;5067180;28;20194;-78
2021/04/27 08:09:04;;;;;;;0.70;0.63;;;11.20;99.90;;;;;;5074398;28;20227;-78
2021/04/27 08:11:31;;;;;;;0.37;0.37;;;11.50;99.90;;;;;;5084221;28;20832;-78
2021/04/27 08:13:56;;;;;;;0.47;0.40;;;11.30;99.90;;;;;;5074729;28;20652;-78
2021/04/27 08:16:22;;;;;;;1.83;0.60;;;11.20;99.90;;;;;;5074961;28;20191;-79
2021/04/27 08:18:48;;;;;;;0.20;0.20;;;11.60;99.90;;;;;;5074458;28;20252;-79
2021/04/27 08:21:14;;;;;;;0.17;0.17;;;11.90;99.90;;;;;;5076218;28;20211;-77
2021/04/27 08:23:41;;;;;;;0.20;0.20;;;11.90;99.90;;;;;;5055894;28;20189;-79
2021/04/27 08:26:08;;;;;;;0.27;0.27;;;11.30;99.90;;;;;;5062018;28;20721;-78
2021/04/27 08:28:34;;;;;;;0.13;0.13;;;11.50;99.90;;;;;;5075741;28;20223;-79
2021/04/27 08:31:00;;;;;;;0.60;0.60;;;11.20;99.90;;;;;;5060179;28;20213;-77
2021/04/27 08:33:26;;;;;;;0.80;0.80;;;10.80;99.90;;;;;;5075796;28;20181;-78
2021/04/27 08:35:52;;;;;;;0.20;0.20;;;11.30;99.90;;;;;;5088408;28;20265;-77
2021/04/27 08:38:18;;;;;;;0.30;0.30;;;11.60;99.90;;;;;;5080380;28;20177;-78
2021/04/27 08:40:45;;;;;;;0.83;0.20;;;12.20;99.90;;;;;;5082028;28;20204;-77
2021/04/27 08:43:10;;;;;;;0.40;0.40;;;12.60;99.90;;;;;;5080722;28;20672;-78
2021/04/27 08:45:36;;;;;;;0.50;0.43;;;12.70;99.90;;;;;;5077692;28;20181;-78
2021/04/27 08:48:02;;;;;;;0.10;0.10;;;12.30;99.90;;;;;;5095388;28;20227;-77
2021/04/27 08:50:28;;;;;;;0.10;0.10;;;12.10;99.90;;;;;;5097696;28;20550;-79
2021/04/27 08:52:54;;;;;;;0.30;0.30;;;12.50;99.90;;;;;;5086466;28;20191;-78
2021/04/27 08:55:20;;;;;;;0.10;0.10;;;11.90;99.90;;;;;;5083688;28;20208;-78
2021/04/27 08:57:48;;;;;;;0.17;0.17;;;11.90;99.90;;;;;;5065841;28;20600;-78
2021/04/27 09:00:17;;;;;;;0.67;0.67;;;11.70;99.90;;;;;;5075461;28;20226;-79
2021/04/27 09:02:45;;;;;;;0.20;0.20;;;12.20;99.90;;;;;;5065939;28;20188;-78
2021/04/27 09:05:22;;;;;;;0.97;0.50;;;12.50;99.90;;;;;;5061984;28;20330;-78
2021/04/27 09:07:48;;;;;;;1.30;1.30;;;12.60;99.90;;;;;;5059940;28;20213;-79
2021/04/27 09:10:26;;;;;;;0.37;0.27;;;12.50;99.90;;;;;;5085950;28;20320;-79
2021/04/27 09:12:55;;;;;;;0.60;0.23;;;12.50;99.90;;;;;;5060722;28;20203;-79
2021/04/27 09:15:27;;;;;;;0.30;0.30;;;12.40;99.90;;;;;;5060842;28;20191;-80
2021/04/27 09:17:53;;;;;;;1.23;0.50;;;12.40;99.90;;;;;;5070536;28;20191;-78
2021/04/27 09:20:19;;;;;;;0.70;0.33;;;12.90;99.90;;;;;;5083420;28;20290;-81
2021/04/27 09:22:45;;;;;;;0.20;0.20;;;12.70;99.90;;;;;;5057760;28;20189;-81
2021/04/27 09:25:11;;;;;;;0.23;0.20;;;12.60;99.90;;;;;;5088667;28;20260;-81
2021/04/27 09:27:38;;;;;;;0.40;0.40;;;12.70;99.90;;;;;;5062310;28;20205;-82
2021/04/27 09:30:11;;;;;;;1.17;1.07;;;13.20;99.90;;;;;;5090579;28;20283;-82
2021/04/27 09:32:39;;;;;;;0.23;0.10;;;13.60;99.90;;;;;;5070218;28;20184;-81
2021/04/27 09:35:30;;;;;;;1.97;0.80;;;13.90;99.90;;;;;;5070267;28;20184;-84
2021/04/27 09:38:08;;;;;;;1.33;0.30;;;12.90;99.90;;;;;;5069928;28;20187;-82
2021/04/27 09:40:57;;;;;;;0.20;0.20;;;12.90;99.90;;;;;;5080303;28;20307;-81
2021/04/27 09:43:26;;;;;;;0.87;0.77;;;13.40;99.90;;;;;;5062773;28;20210;-81
2021/04/27 09:45:54;;;;;;;0.47;0.47;;;12.90;99.90;;;;;;5087801;28;20203;-83
2021/04/27 09:49:06;;;;;;;0.93;0.60;;;12.90;99.90;;;;;;5062892;28;20204;-82
2021/04/27 09:51:35;;;;;;;0.60;0.60;;;13.00;99.90;;;;;;5062509;28;20227;-82
2021/04/27 09:54:03;;;;;;;0.93;0.93;;;13.00;99.90;;;;;;5072811;28;20616;-81
2021/04/27 09:56:35;;;;;;;0.30;0.30;;;13.00;99.90;;;;;;5068386;28;20177;-81
2021/04/27 09:59:24;;;;;;;0.20;0.20;;;13.30;99.90;;;;;;5072031;28;20207;-81
2021/04/27 10:01:52;;;;;;;0.30;0.23;;;13.60;99.90;;;;;;5062265;28;20173;-81
2021/04/27 10:04:19;;;;;;;0.23;0.23;;;14.00;99.90;;;;;;5066502;28;20183;-83
2021/04/27 10:06:45;;;;;;;0.47;0.47;;;14.10;99.90;;;;;;5070964;28;20249;-82
2021/04/27 10:09:11;;;;;;;0.57;0.53;;;13.60;99.90;;;;;;5071212;28;20205;-81
2021/04/27 10:11:38;;;;;;;0.33;0.20;;;14.30;99.90;;;;;;5085422;28;20177;-82
2021/04/27 10:14:05;;;;;;;0.67;0.67;;;14.90;99.90;;;;;;5088894;28;20214;-82
2021/04/27 10:16:33;;;;;;;0.67;0.67;;;15.20;99.90;;;;;;5072697;28;20179;-81
2021/04/27 10:18:59;;;;;;;0.63;0.63;;;14.10;99.90;;;;;;5070522;28;20195;-83
2021/04/27 10:21:25;;;;;;;0.30;0.20;;;14.60;99.90;;;;;;5095295;28;20767;-83
2021/04/27 10:23:55;;;;;;;0.30;0.30;;;14.90;99.90;;;;;;5090744;28;20184;-83
2021/04/27 10:26:25;;;;;;;0.50;0.50;;;14.10;99.90;;;;;;5085898;28;20191;-81
2021/04/27 10:28:57;;;;;;;0.33;0.33;;;14.30;99.90;;;;;;5062948;28;20207;-82
2021/04/27 10:31:26;;;;;;;3.10;0.60;;;14.50;99.90;;;;;;5067244;28;20290;-84
2021/04/27 10:34:11;;;;;;;0.57;0.57;;;14.50;99.90;;;;;;5087250;28;20183;-81
2021/04/27 10:36:58;;;;;;;0.20;0.20;;;14.90;99.90;;;;;;5095114;28;20719;-81
2021/04/27 10:39:47;;;;;;;0.30;0.30;;;15.20;99.90;;;;;;5078161;28;20189;-83
2021/04/27 10:42:17;;;;;;;0.40;0.40;;;15.50;99.90;;;;;;5072094;28;20185;-82
2021/04/27 10:44:54;;;;;;;0.30;0.30;;;15.70;99.90;;;;;;5081740;28;20595;-82
2021/04/27 10:47:21;;;;;;;0.30;0.30;;;15.70;99.90;;;;;;5077177;28;20234;-83
2021/04/27 10:49:48;;;;;;;0.93;0.80;;;15.40;99.90;;;;;;5102320;28;20207;-82
2021/04/27 10:52:29;;;;;;;0.50;0.43;;;15.20;99.90;;;;;;5085712;28;20261;-85
2021/04/27 10:55:26;;;;;;;0.50;0.33;;;14.90;99.90;;;;;;5093993;28;21009;-81
2021/04/27 10:58:03;;;;;;;0.60;0.57;;;15.10;99.90;;;;;;5099390;28;20180;-80
2021/04/27 11:00:42;;;;;;;0.90;0.43;;;15.20;99.90;;;;;;5081059;28;20200;-86
2021/04/27 11:03:13;;;;;;;0.60;0.60;;;16.00;99.90;;;;;;5085117;28;20188;-85
2021/04/27 11:06:05;;;;;;;0.23;0.23;;;15.80;99.90;;;;;;5088547;28;20187;-81
2021/04/27 11:08:49;;;;;;;0.57;0.37;;;15.90;99.90;;;;;;5096465;28;20223;-82
2021/04/27 11:11:30;;;;;;;0.40;0.40;;;16.20;99.90;;;;;;5087505;28;20262;-82
2021/04/27 11:14:17;;;;;;;0.60;0.60;;;16.70;99.90;;;;;;5092605;28;20181;-82
2021/04/27 11:16:53;;;;;;;0.40;0.40;;;16.70;99.70;;;;;;5071155;28;20260;-82
2021/04/27 11:19:18;;;;;;;0.57;0.40;;;15.90;99.20;;;;;;5089871;28;20188;-83
2021/04/27 11:21:48;;;;;;;0.40;0.40;;;16.10;99.90;;;;;;5076330;28;20626;-81
2021/04/27 11:24:42;;;;;;;0.67;0.40;;;16.50;99.70;;;;;;5071750;28;20227;-81
2021/04/27 11:27:40;;;;;;;2.57;1.00;;;16.80;99.20;;;;;;5070025;28;20233;-82
2021/04/27 11:30:09;;;;;;;0.60;0.60;;;16.30;99.30;;;;;;5085749;28;20217;-82
2021/04/27 11:32:37;;;;;;;0.30;0.30;;;16.90;98.70;;;;;;5062940;28;20243;-84
2021/04/27 11:35:20;;;;;;;0.70;0.63;;;17.30;98.90;;;;;;5067660;28;20208;-83
2021/04/27 11:37:51;;;;;;;0.80;0.70;;;17.50;98.70;;;;;;5064673;28;20185;-83
2021/04/27 11:40:38;;;;;;;0.87;0.87;;;16.80;97.80;;;;;;5078447;28;20232;-88
2021/04/27 11:43:14;;;;;;;0.60;0.60;;;16.80;97.40;;;;;;5065712;28;20191;-89
2021/04/27 11:45:48;;;;;;;0.43;0.43;;;17.10;97.20;;;;;;5062403;28;20180;-84
2021/04/27 11:48:23;;;;;;;0.43;0.43;;;16.80;98.50;;;;;;5085478;28;20235;-83
2021/04/27 11:50:50;;;;;;;0.30;0.30;;;17.30;97.90;;;;;;5080299;28;20291;-82
2021/04/27 11:53:20;;;;;;;0.83;0.83;;;17.50;97.80;;;;;;5073479;28;20189;-83
2021/04/27 11:55:54;;;;;;;1.43;0.37;;;17.60;97.20;;;;;;5084728;28;20180;-82
2021/04/27 11:58:35;;;;;;;0.50;0.50;;;16.70;97.20;;;;;;5062809;28;20231;-82
2021/04/27 12:01:04;;;;;;;0.63;0.63;;;17.30;97.80;;;;;;5078571;28;20340;-82
2021/04/27 12:03:42;;;;;;;0.40;0.40;;;17.40;95.70;;;;;;5096059;28;20812;-82
2021/04/27 12:06:08;;;;;;;0.70;0.70;;;17.10;95.40;;;;;;5078849;28;20196;-82
2021/04/27 12:08:40;;;;;;;0.60;0.60;;;16.50;94.20;;;;;;5070233;28;20224;-84
2021/04/27 12:11:23;;;;;;;0.57;0.33;;;16.80;94.30;;;;;;5091000;28;20227;-83
2021/04/27 12:13:56;;;;;;;0.30;0.30;;;17.40;96.90;;;;;;5068191;28;20659;-83
2021/04/27 12:16:31;;;;;;;0.13;0.13;;;17.70;97.60;;;;;;5076117;28;20222;-82
2021/04/27 12:19:07;;;;;;;1.03;0.63;;;18.10;96.90;;;;;;5059883;28;20195;-82
2021/04/27 12:21:53;;;;;;;0.60;0.60;;;18.30;96.20;;;;;;5065301;28;20284;-82
2021/04/27 12:24:35;;;;;;;0.83;0.77;;;17.10;93.60;;;;;;5073348;28;20275;-84
2021/04/27 12:27:21;;;;;;;1.00;1.00;;;16.80;93.70;;;;;;5071086;28;20181;-82
2021/04/27 12:30:09;;;;;;;1.47;0.67;;;16.80;94.80;;;;;;5078185;28;20299;-81
2021/04/27 12:32:36;;;;;;;0.50;0.50;;;17.00;95.00;;;;;;5082743;28;20182;-81
2021/04/27 12:35:11;;;;;;;1.23;0.50;;;16.80;95.60;;;;;;5061910;28;20204;-82
2021/04/27 12:37:44;;;;;;;0.40;0.40;;;17.00;95.80;;;;;;5058728;28;20207;-82
2021/04/27 12:40:13;;;;;;;2.33;2.13;;;16.90;95.50;;;;;;5073316;28;20200;-82
2021/04/27 12:43:04;;;;;;;0.30;0.30;;;16.70;96.80;;;;;;5061515;28;20205;-82
2021/04/27 12:45:49;;;;;;;0.50;0.50;;;16.80;96.20;;;;;;5063384;28;20180;-83
2021/04/27 12:48:18;;;;;;;0.57;0.57;;;16.60;95.70;;;;;;5063851;28;20295;-82
2021/04/27 12:50:49;;;;;;;0.27;0.27;;;16.70;97.50;;;;;;5064659;28;20771;-83
2021/04/27 12:53:16;;;;;;;0.77;0.77;;;17.20;96.40;;;;;;5071982;28;20245;-82
2021/04/27 12:55:53;;;;;;;0.30;0.30;;;17.60;95.40;;;;;;5089825;28;20192;-82
2021/04/27 12:58:23;;;;;;;0.20;0.20;;;16.80;96.50;;;;;;5091335;28;20202;-82
2021/04/27 13:01:01;;;;;;;0.70;0.57;;;17.00;96.10;;;;;;5063514;28;20212;-83
2021/04/27 13:03:30;;;;;;;0.40;0.40;;;17.40;96.00;;;;;;5077386;28;20187;-82